createdAt,value
2022-09-12T00:01:38.925Z,99050.25
2022-09-12T00:04:07.128Z,99053.97
2022-09-12T00:06:36.713Z,99059.00
2022-09-12T00:09:06.333Z,99045.72
2022-09-12T00:11:36.556Z,99047.06
2022-09-12T00:14:06.894Z,99047.06
2022-09-12T00:16:36.467Z,99042.81
2022-09-12T00:19:05.450Z,99034.84
2022-09-12T00:21:34.185Z,99035.13
2022-09-12T00:24:02.569Z,99034.31
2022-09-12T00:26:30.971Z,99024.75
2022-09-12T00:28:59.110Z,99030.09
2022-09-12T00:31:29.632Z,99022.09
2022-09-12T00:33:58.577Z,99024.75
2022-09-12T00:36:27.531Z,99023.19
2022-09-12T00:38:55.608Z,99018.16
2022-09-12T00:41:25.968Z,99016.84
2022-09-12T00:43:54.849Z,99013.91
2022-09-12T00:46:33.680Z,99018.97
2022-09-12T00:49:03.838Z,99017.84
2022-09-12T00:51:33.803Z,99026.94
2022-09-12T00:54:04.551Z,99017.38
2022-09-12T00:56:32.910Z,99015.50
2022-09-12T00:59:04.044Z,99008.34
2022-09-12T01:01:34.011Z,99009.41
2022-09-12T01:04:02.870Z,99016.31
2022-09-12T01:06:34.426Z,99008.34
2022-09-12T01:09:04.813Z,99002.50
2022-09-12T01:11:34.202Z,99008.88
2022-09-12T01:14:02.428Z,99006.22
2022-09-12T01:16:30.534Z,99007.28
2022-09-12T01:19:10.439Z,99006.47
2022-09-12T01:21:42.001Z,99003.03
2022-09-12T01:24:28.140Z,99000.66
2022-09-12T01:27:10.213Z,98999.84
2022-09-12T01:29:57.199Z,98994.53
2022-09-12T01:32:30.983Z,98992.94
2022-09-12T01:35:03.647Z,98995.09
2022-09-12T01:37:37.872Z,98998.03
2022-09-12T01:40:16.045Z,98994.06
2022-09-12T01:42:50.902Z,98995.69
2022-09-12T01:45:22.977Z,98995.38
2022-09-12T01:47:56.677Z,98997.78
2022-09-12T01:50:29.581Z,98999.38
2022-09-12T01:53:00.682Z,98990.88
2022-09-12T01:55:31.597Z,98993.03
2022-09-12T01:58:02.778Z,98994.09
2022-09-12T02:00:32.317Z,98991.44
2022-09-12T02:03:04.929Z,98989.56
2022-09-12T02:05:35.239Z,98997.25
2022-09-12T02:08:06.240Z,98996.44
2022-09-12T02:10:36.520Z,98999.38
2022-09-12T02:13:09.621Z,98992.19
2022-09-12T02:15:41.971Z,98991.13
2022-09-12T02:18:14.628Z,98987.41
2022-09-12T02:20:48.554Z,98983.69
2022-09-12T02:23:20.730Z,98985.81
2022-09-12T02:25:50.975Z,98983.16
2022-09-12T02:28:25.876Z,98985.81
2022-09-12T02:31:01.228Z,98986.59
2022-09-12T02:36:25.055Z,98986.63
2022-09-12T02:38:55.113Z,98985.03
2022-09-12T02:41:26.536Z,98981.59
2022-09-12T02:46:45.950Z,98983.47
2022-09-12T02:51:59.636Z,98981.34
2022-09-12T02:54:33.801Z,98988.53
2022-09-12T02:57:02.650Z,98987.75
2022-09-12T02:59:33.353Z,98997.88
2022-09-12T03:02:11.836Z,98989.09
2022-09-12T03:04:49.987Z,98987.78
2022-09-12T03:07:31.021Z,98989.38
2022-09-12T03:10:03.260Z,98982.47
2022-09-12T03:12:40.153Z,98990.44
2022-09-12T03:15:27.469Z,98994.69
2022-09-12T03:18:04.605Z,98987.50
2022-09-12T03:20:39.527Z,98987.78
2022-09-12T03:23:14.364Z,98984.31
2022-09-12T03:25:45.629Z,98985.13
2022-09-12T03:28:16.431Z,98987.25
2022-09-12T03:30:46.013Z,98988.84
2022-09-12T03:33:15.029Z,98997.09
2022-09-12T03:35:43.976Z,98988.91
2022-09-12T03:38:14.048Z,98992.63
2022-09-12T03:40:43.164Z,98990.50
2022-09-12T03:43:11.910Z,98986.72
2022-09-12T03:45:40.650Z,98979.81
2022-09-12T03:48:10.087Z,98984.06
2022-09-12T03:50:38.650Z,98988.31
2022-09-12T03:53:07.618Z,98977.94
2022-09-12T03:55:39.878Z,98980.88
2022-09-12T03:58:08.884Z,98979.00
2022-09-12T04:00:38.033Z,98971.56
2022-09-12T04:03:06.955Z,98972.09
2022-09-12T04:05:36.682Z,98968.59
2022-09-12T04:08:05.333Z,98968.59
2022-09-12T04:10:34.624Z,98968.31
2022-09-12T04:16:02.207Z,98969.59
2022-09-12T04:18:30.235Z,98972.50
2022-09-12T04:21:01.997Z,98967.44
2022-09-12T04:23:30.561Z,98972.19
2022-09-12T04:26:00.975Z,98974.06
2022-09-12T04:28:30.377Z,98971.41
2022-09-12T04:31:04.199Z,98975.63
2022-09-12T04:36:11.506Z,98973.78
2022-09-12T04:38:49.974Z,98973.28
2022-09-12T04:41:22.353Z,98973.53
2022-09-12T04:43:53.572Z,98972.66
2022-09-12T04:46:32.480Z,98974.78
2022-09-12T04:49:03.195Z,98972.59
2022-09-12T04:51:34.778Z,98978.94
2022-09-12T04:54:05.447Z,98974.06
2022-09-12T04:56:35.131Z,98977.22
2022-09-12T04:59:04.601Z,98977.69
2022-09-12T05:01:33.715Z,98969.66
2022-09-12T05:04:05.004Z,98977.03
2022-09-12T05:06:35.405Z,98976.22
2022-09-12T05:09:05.995Z,98974.81
2022-09-12T05:14:34.483Z,98975.81
2022-09-12T05:17:17.392Z,98980.59
2022-09-12T05:19:58.162Z,98982.19
2022-09-12T05:25:36.337Z,98980.03
2022-09-12T05:31:05.569Z,98974.16
2022-09-12T05:33:36.348Z,98978.88
2022-09-12T05:36:08.131Z,98980.72
2022-09-12T05:38:38.708Z,98955.56
2022-09-12T05:41:16.158Z,98970.88
2022-09-12T05:43:46.292Z,98974.34
2022-09-12T05:46:16.875Z,98974.75
2022-09-12T05:48:48.270Z,98971.47
2022-09-12T05:51:21.925Z,98970.06
2022-09-12T05:53:52.543Z,98971.50
2022-09-12T05:56:23.015Z,98979.41
2022-09-12T05:58:56.185Z,98974.50
2022-09-12T06:01:33.968Z,98969.19
2022-09-12T06:06:41.898Z,98966.97
2022-09-12T06:09:11.196Z,98962.72
2022-09-12T06:11:40.956Z,98965.59
2022-09-12T06:14:10.654Z,98952.59
2022-09-12T06:16:40.196Z,98949.22
2022-09-12T06:19:08.958Z,98953.47
2022-09-12T06:21:40.144Z,98954.09
2022-09-12T06:24:09.330Z,98954.22
2022-09-12T06:26:37.923Z,98953.13
2022-09-12T06:29:06.756Z,98953.72
2022-09-12T06:31:36.169Z,98966.28
2022-09-12T06:34:15.757Z,98970.72
2022-09-12T06:36:59.614Z,98959.88
2022-09-12T06:39:39.742Z,98962.53
2022-09-12T06:44:55.300Z,98968.13
2022-09-12T06:47:36.319Z,98963.47
2022-09-12T06:56:26.243Z,98957.50
2022-09-12T07:01:57.007Z,98968.84
2022-09-12T07:04:25.326Z,98970.16
2022-09-12T07:06:53.731Z,98969.69
2022-09-12T07:09:23.367Z,98982.97
2022-09-12T07:11:52.869Z,98984.19
2022-09-12T07:14:21.281Z,98978.09
2022-09-12T07:16:49.447Z,98979.03
2022-09-12T07:19:18.232Z,98980.00
2022-09-12T07:21:47.241Z,98986.28
2022-09-12T07:36:44.937Z,98979.94
2022-09-12T07:42:00.523Z,98985.53
2022-09-12T07:47:17.959Z,98990.69
2022-09-12T07:49:55.683Z,98986.75
2022-09-12T07:52:42.631Z,99001.09
2022-09-12T07:55:13.977Z,98996.84
2022-09-12T07:57:55.529Z,98993.31
2022-09-12T08:34:11.873Z,99000.75
2022-09-12T08:49:03.547Z,98998.19
2022-09-12T08:51:36.868Z,99006.91
2022-09-12T08:54:07.826Z,98988.13
2022-09-12T08:56:38.279Z,98991.09
2022-09-12T08:59:06.997Z,98990.78
2022-09-12T09:01:39.894Z,98993.44
2022-09-12T09:04:36.449Z,98988.53
2022-09-12T09:07:20.980Z,98996.41
2022-09-12T09:09:56.203Z,99000.84
2022-09-12T09:12:28.518Z,98993.41
2022-09-12T09:15:14.982Z,98991.84
2022-09-12T09:17:44.507Z,98988.53
2022-09-12T09:20:22.469Z,98987.25
2022-09-12T09:22:54.364Z,98990.22
2022-09-12T09:25:25.120Z,98994.03
2022-09-12T09:27:57.424Z,98987.41
2022-09-12T09:30:25.546Z,98989.69
2022-09-12T09:32:57.350Z,98988.44
2022-09-12T09:35:36.201Z,98989.28
2022-09-12T09:38:12.721Z,98980.81
2022-09-12T09:40:44.719Z,98990.00
2022-09-12T09:43:18.540Z,98982.81
2022-09-12T09:45:47.966Z,98994.69
2022-09-12T09:51:18.552Z,98993.94
2022-09-12T09:59:46.063Z,98989.38
2022-09-12T10:02:24.211Z,99000.94
2022-09-12T10:04:55.358Z,98999.00
2022-09-12T10:07:24.165Z,99002.69
2022-09-12T10:10:05.869Z,98984.28
2022-09-12T10:12:33.889Z,98996.78
2022-09-12T10:15:05.845Z,98994.94
2022-09-12T10:17:41.109Z,98991.22
2022-09-12T10:20:30.249Z,98995.63
2022-09-12T10:22:59.374Z,98990.16
2022-09-12T10:25:28.049Z,99003.19
2022-09-12T10:27:57.663Z,98996.47
2022-09-12T10:30:29.249Z,98993.06
2022-09-12T10:33:00.723Z,98991.06
2022-09-12T10:35:31.354Z,98988.50
2022-09-12T10:38:02.052Z,99001.84
2022-09-12T10:40:32.762Z,98997.28
2022-09-12T10:43:01.295Z,98985.66
2022-09-12T10:45:32.333Z,98971.63
2022-09-12T10:48:05.500Z,98991.84
2022-09-12T10:50:38.067Z,98984.09
2022-09-12T10:53:14.873Z,98992.53
2022-09-12T10:55:44.844Z,98982.28
2022-09-12T10:58:22.489Z,98983.28
2022-09-12T11:00:58.581Z,98990.56
2022-09-12T11:03:37.463Z,98998.00
2022-09-12T11:06:06.510Z,98996.19
2022-09-12T11:08:44.344Z,98996.34
2022-09-12T11:11:18.762Z,98991.28
2022-09-12T11:13:54.348Z,98997.56
2022-09-12T11:16:28.624Z,98991.28
2022-09-12T11:19:07.076Z,98993.69
2022-09-12T11:21:45.350Z,98987.59
2022-09-12T11:24:28.133Z,98982.38
2022-09-12T11:27:02.012Z,98985.88
2022-09-12T11:29:39.605Z,98991.66
2022-09-12T11:32:16.079Z,98989.63
2022-09-12T11:34:51.172Z,98997.25
2022-09-12T11:37:33.163Z,98997.88
2022-09-12T11:40:04.297Z,99002.16
2022-09-12T11:42:34.758Z,98983.47
2022-09-12T11:45:06.358Z,98986.66
2022-09-12T11:47:56.654Z,98996.56
2022-09-12T11:50:28.520Z,98983.75
2022-09-12T11:52:59.228Z,98979.31
2022-09-12T11:55:30.066Z,98978.22
2022-09-12T11:57:59.310Z,98974.50
2022-09-12T12:00:30.486Z,98980.31
2022-09-12T12:03:02.734Z,98969.13
2022-09-12T12:30:34.220Z,98958.59
2022-09-12T12:33:28.462Z,98956.19
2022-09-12T12:36:07.440Z,98952.41
2022-09-12T12:38:37.398Z,98954.00
2022-09-12T12:41:24.557Z,98951.44
2022-09-12T12:43:53.450Z,98950.34
2022-09-12T12:46:25.426Z,98950.34
2022-09-12T12:48:55.938Z,98957.22
2022-09-12T12:51:38.217Z,98953.09
2022-09-12T12:54:12.843Z,98951.94
2022-09-12T12:56:42.792Z,98957.63
2022-09-12T12:59:16.972Z,98959.72
2022-09-12T13:05:43.203Z,98957.25
2022-09-12T13:08:14.116Z,98950.97
2022-09-12T13:10:51.567Z,98947.38
2022-09-12T13:13:25.700Z,98949.31
2022-09-12T13:15:54.687Z,98942.50
2022-09-12T13:18:28.309Z,98946.44
2022-09-12T13:21:04.143Z,98946.47
2022-09-12T13:23:37.413Z,98944.63
2022-09-12T13:26:11.940Z,98941.28
2022-09-12T13:28:40.494Z,98944.72
2022-09-12T13:31:13.416Z,98948.44
2022-09-12T13:33:42.811Z,98940.47
2022-09-12T13:36:30.653Z,98948.81
2022-09-12T13:39:05.888Z,98940.41
2022-09-12T13:41:40.790Z,98940.94
2022-09-12T13:44:13.375Z,98939.97
2022-09-12T13:46:42.176Z,98943.25
2022-09-12T13:49:18.281Z,98939.50
2022-09-12T13:51:53.818Z,98938.78
2022-09-12T13:54:24.561Z,98930.44
2022-09-12T13:56:53.179Z,98932.06
2022-09-12T13:59:23.625Z,98934.88
2022-09-12T14:01:52.628Z,98935.03
2022-09-12T14:04:39.482Z,98944.44
2022-09-12T14:07:15.558Z,98939.59
2022-09-12T14:09:45.988Z,98950.00
2022-09-12T14:12:23.114Z,98937.63
2022-09-12T14:17:36.973Z,98942.25
2022-09-12T14:20:07.936Z,98948.09
2022-09-12T14:22:39.706Z,98947.84
2022-09-12T14:25:14.326Z,98956.50
2022-09-12T14:27:47.865Z,98952.97
2022-09-12T14:30:23.306Z,98956.63
2022-09-12T14:33:18.122Z,98954.25
2022-09-12T14:35:54.331Z,98951.34
2022-09-12T14:38:35.739Z,98950.22
2022-09-12T14:41:08.565Z,98942.38
2022-09-12T14:43:38.829Z,98945.41
2022-09-12T14:46:11.546Z,98941.31
2022-09-12T14:48:45.110Z,98940.75
2022-09-12T14:51:21.206Z,98943.16
2022-09-12T14:53:54.071Z,98940.09
2022-09-12T14:56:24.019Z,98939.03
2022-09-12T14:58:53.836Z,98934.34
2022-09-12T15:01:26.972Z,98938.53
2022-09-12T15:03:57.420Z,98944.38
2022-09-12T15:06:28.947Z,98944.41
2022-09-12T15:09:00.223Z,98948.31
2022-09-12T15:11:28.982Z,98944.09
2022-09-12T15:13:57.563Z,98946.94
2022-09-12T15:16:26.528Z,98950.56
2022-09-12T15:18:54.615Z,98951.59
2022-09-12T15:21:22.891Z,98951.03
2022-09-12T15:23:52.326Z,98952.78
2022-09-12T15:26:23.072Z,98958.38
2022-09-12T15:28:57.066Z,98949.41
2022-09-12T15:31:26.552Z,98952.50
2022-09-12T15:33:56.321Z,98958.44
2022-09-12T16:14:24.852Z,98963.94
2022-09-12T16:52:27.488Z,98977.44
2022-09-12T16:57:41.035Z,98974.59
2022-09-12T17:00:11.022Z,98974.09
2022-09-12T17:02:41.322Z,98980.72
2022-09-12T17:05:16.904Z,98983.03
2022-09-12T17:07:56.638Z,98987.22
2022-09-12T17:19:19.979Z,98992.88
2022-09-12T17:24:37.584Z,98984.28
2022-09-12T17:27:07.650Z,98987.19
2022-09-12T17:29:48.985Z,98980.78
2022-09-12T17:32:25.276Z,98987.19
2022-09-12T17:37:41.478Z,98989.41
2022-09-12T17:40:14.267Z,98982.22
2022-09-12T17:42:45.814Z,98977.47
2022-09-12T18:06:38.512Z,98986.47
2022-09-12T18:09:33.409Z,98987.78
2022-09-12T18:12:05.691Z,98988.03
2022-09-12T18:14:34.122Z,98987.78
2022-09-12T18:17:12.001Z,98997.28
2022-09-12T18:19:53.355Z,98991.19
2022-09-12T18:22:25.180Z,98985.34
2022-09-12T18:27:34.738Z,98987.69
2022-09-12T18:30:20.465Z,98984.38
2022-09-12T18:33:04.434Z,98989.94
2022-09-12T18:35:36.033Z,98983.72
2022-09-12T18:38:18.243Z,98978.38
2022-09-12T18:46:24.853Z,98986.69
2022-09-12T18:48:58.325Z,98990.72
2022-09-12T18:51:42.989Z,98990.50
2022-09-12T18:54:21.605Z,98979.34
2022-09-12T18:56:52.062Z,98987.03
2022-09-12T18:59:21.916Z,98986.47
2022-09-12T19:01:54.062Z,98983.88
2022-09-12T19:04:24.895Z,98982.00
2022-09-12T19:06:58.804Z,98984.66
2022-09-12T19:09:42.492Z,98983.59
2022-09-12T19:12:14.140Z,98984.38
2022-09-12T19:17:37.616Z,98976.09
2022-09-12T19:20:11.346Z,98985.94
2022-09-12T19:22:41.438Z,98984.75
2022-09-12T19:25:13.483Z,98980.00
2022-09-12T19:27:44.639Z,98987.50
2022-09-12T19:30:13.646Z,98980.94
2022-09-12T19:32:42.473Z,98982.81
2022-09-12T19:35:16.088Z,98980.75
2022-09-12T19:37:45.647Z,98983.47
2022-09-12T19:40:23.351Z,98987.22
2022-09-12T19:46:07.203Z,98984.84
2022-09-12T19:53:29.875Z,98973.88
2022-09-12T19:56:09.121Z,98978.44
2022-09-12T19:58:38.628Z,98976.56
2022-09-12T20:01:11.749Z,98976.84
2022-09-12T20:03:40.264Z,98966.47
2022-09-12T20:06:15.005Z,98971.28
2022-09-12T20:08:55.195Z,98975.03
2022-09-12T20:14:33.952Z,98964.31
2022-09-12T20:17:41.832Z,98973.88
2022-09-12T20:20:11.087Z,98970.44
2022-09-12T20:22:40.446Z,98971.22
2022-09-12T20:25:09.729Z,98965.44
2022-09-12T20:27:47.748Z,98966.56
2022-09-12T20:30:20.306Z,98964.16
2022-09-12T20:32:55.449Z,98972.16
2022-09-12T20:35:30.734Z,98962.00
2022-09-12T20:38:00.353Z,98970.00
2022-09-12T20:40:41.240Z,98960.13
2022-09-12T20:50:15.893Z,98958.63
2022-09-12T20:53:04.676Z,98954.22
2022-09-12T20:56:00.714Z,98950.69
2022-09-12T21:01:53.816Z,98950.13
2022-09-12T21:04:24.920Z,98955.97
2022-09-12T21:06:54.565Z,98954.06
2022-09-12T21:12:26.545Z,98954.31
2022-09-12T21:14:54.710Z,98951.66
2022-09-12T21:17:24.977Z,98950.06
2022-09-12T21:19:53.028Z,98947.91
2022-09-12T21:22:27.609Z,98950.84
2022-09-12T21:24:55.766Z,98949.41
2022-09-12T21:27:23.851Z,98943.00
2022-09-12T21:29:52.073Z,98940.34
2022-09-12T21:32:20.579Z,98946.44
2022-09-12T21:34:50.484Z,98948.84
2022-09-12T21:37:18.896Z,98943.19
2022-09-12T21:39:47.102Z,98944.00
2022-09-12T21:42:15.083Z,98943.19
2022-09-12T21:44:43.127Z,98940.25
2022-09-12T21:47:11.163Z,98932.75
2022-09-12T21:49:39.372Z,98931.97
2022-09-12T21:52:09.006Z,98931.66
2022-09-12T21:54:37.085Z,98930.09
2022-09-12T21:57:05.386Z,98924.50
2022-09-12T21:59:33.608Z,98925.25
2022-09-12T22:02:01.626Z,98918.66
2022-09-12T22:04:33.137Z,98920.25
2022-09-12T22:07:02.662Z,98919.94
2022-09-12T22:09:33.104Z,98919.94
2022-09-12T22:12:01.410Z,98919.66
2022-09-12T22:14:29.718Z,98914.81
2022-09-12T22:16:58.876Z,98923.09
2022-09-12T22:19:27.096Z,98913.53
2022-09-12T22:22:12.819Z,98911.66
2022-09-12T22:24:42.301Z,98910.66
2022-09-12T22:27:10.265Z,98914.41
2022-09-12T22:29:38.237Z,98913.91
2022-09-12T22:32:06.497Z,98913.91
2022-09-12T22:34:34.873Z,98909.38
2022-09-12T22:37:02.898Z,98909.13
2022-09-12T22:39:30.949Z,98916.72
2022-09-12T22:42:01.756Z,98922.31
2022-09-12T22:44:29.809Z,98912.25
2022-09-12T22:46:58.026Z,98913.59
2022-09-12T22:49:26.302Z,98913.09
2022-09-12T22:51:54.554Z,98908.88
2022-09-12T22:54:22.633Z,98909.66
2022-09-12T22:56:50.608Z,98913.69
2022-09-12T22:59:20.756Z,98902.53
2022-09-12T23:01:48.784Z,98899.94
2022-09-12T23:04:17.044Z,98892.75
2022-09-12T23:06:45.098Z,98896.75
2022-09-12T23:09:13.325Z,98890.72
2022-09-12T23:11:41.300Z,98890.72
2022-09-12T23:14:09.498Z,98893.38
2022-09-12T23:16:39.320Z,98891.00
2022-09-12T23:19:07.457Z,98899.00
2022-09-12T23:21:35.513Z,98897.41
2022-09-12T23:24:03.904Z,98891.78
2022-09-12T23:26:32.683Z,98884.59
2022-09-12T23:29:02.149Z,98884.88
2022-09-12T23:31:31.243Z,98883.03
2022-09-12T23:34:02.352Z,98880.16
2022-09-12T23:36:30.842Z,98882.81
2022-09-12T23:38:59.275Z,98883.38
2022-09-12T23:41:27.301Z,98878.41
2022-09-12T23:43:55.559Z,98884.81
2022-09-12T23:46:23.733Z,98879.53
2022-09-12T23:48:53.485Z,98881.47
2022-09-12T23:51:23.286Z,98867.16
2022-09-12T23:53:51.692Z,98869.03
2022-09-12T23:56:19.626Z,98868.53
2022-09-12T23:58:47.657Z,98868.56
